sensor_id;sensor_type;location;lat;lon;timestamp;P1;durP1;ratioP1;P2;durP2;ratioP2
21444;SDS011;10883;51.946;20.140;2023-05-10T00:02:13;7.38;;;3.67;;
21444;SDS011;10883;51.946;20.140;2023-05-10T00:04:39;9.57;;;4.15;;
21444;SDS011;10883;51.946;20.140;2023-05-10T00:07:05;6.43;;;3.60;;
21444;SDS011;10883;51.946;20.140;2023-05-10T00:09:30;9.10;;;4.22;;
21444;SDS011;10883;51.946;20.140;2023-05-10T00:11:56;7.38;;;3.67;;
21444;SDS011;10883;51.946;20.140;2023-05-10T00:14:23;5.72;;;3.88;;
21444;SDS011;10883;51.946;20.140;2023-05-10T00:16:49;7.35;;;4.15;;
21444;SDS011;10883;51.946;20.140;2023-05-10T00:19:14;8.32;;;3.75;;
21444;SDS011;10883;51.946;20.140;2023-05-10T00:21:40;7.03;;;4.00;;
21444;SDS011;10883;51.946;20.140;2023-05-10T00:24:06;6.85;;;4.10;;
21444;SDS011;10883;51.946;20.140;2023-05-10T00:26:32;7.45;;;3.80;;
21444;SDS011;10883;51.946;20.140;2023-05-10T00:28:58;8.45;;;4.47;;
21444;SDS011;10883;51.946;20.140;2023-05-10T00:31:23;5.90;;;3.90;;
21444;SDS011;10883;51.946;20.140;2023-05-10T00:33:49;6.93;;;4.05;;
21444;SDS011;10883;51.946;20.140;2023-05-10T00:36:15;6.65;;;3.58;;
21444;SDS011;10883;51.946;20.140;2023-05-10T00:38:41;5.70;;;3.78;;
21444;SDS011;10883;51.946;20.140;2023-05-10T00:41:06;9.82;;;3.67;;
21444;SDS011;10883;51.946;20.140;2023-05-10T00:43:32;4.70;;;3.60;;
21444;SDS011;10883;51.946;20.140;2023-05-10T00:45:58;6.07;;;3.88;;
21444;SDS011;10883;51.946;20.140;2023-05-10T00:48:24;7.82;;;4.60;;
21444;SDS011;10883;51.946;20.140;2023-05-10T00:50:50;7.60;;;4.00;;
21444;SDS011;10883;51.946;20.140;2023-05-10T00:53:16;8.05;;;4.10;;
21444;SDS011;10883;51.946;20.140;2023-05-10T00:55:42;9.93;;;4.15;;
21444;SDS011;10883;51.946;20.140;2023-05-10T00:58:09;6.75;;;3.88;;
21444;SDS011;10883;51.946;20.140;2023-05-10T01:00:35;5.95;;;3.83;;
21444;SDS011;10883;51.946;20.140;2023-05-10T01:03:02;5.93;;;4.15;;
21444;SDS011;10883;51.946;20.140;2023-05-10T01:05:28;7.05;;;3.92;;
21444;SDS011;10883;51.946;20.140;2023-05-10T01:07:55;7.40;;;4.35;;
21444;SDS011;10883;51.946;20.140;2023-05-10T01:10:21;7.07;;;3.80;;
21444;SDS011;10883;51.946;20.140;2023-05-10T01:12:47;9.45;;;4.15;;
21444;SDS011;10883;51.946;20.140;2023-05-10T01:15:13;7.68;;;4.40;;
21444;SDS011;10883;51.946;20.140;2023-05-10T01:17:42;7.68;;;3.90;;
21444;SDS011;10883;51.946;20.140;2023-05-10T01:20:11;7.15;;;3.97;;
21444;SDS011;10883;51.946;20.140;2023-05-10T01:25:48;9.65;;;4.55;;
21444;SDS011;10883;51.946;20.140;2023-05-10T01:28:29;8.43;;;4.05;;
21444;SDS011;10883;51.946;20.140;2023-05-10T01:39:30;9.20;;;4.50;;
21444;SDS011;10883;51.946;20.140;2023-05-10T01:42:08;9.60;;;4.47;;
21444;SDS011;10883;51.946;20.140;2023-05-10T01:44:40;9.50;;;4.70;;
21444;SDS011;10883;51.946;20.140;2023-05-10T01:47:40;8.20;;;4.60;;
21444;SDS011;10883;51.946;20.140;2023-05-10T01:50:42;10.35;;;4.43;;
21444;SDS011;10883;51.946;20.140;2023-05-10T01:53:01;8.57;;;4.53;;
21444;SDS011;10883;51.946;20.140;2023-05-10T01:55:29;12.95;;;5.45;;
21444;SDS011;10883;51.946;20.140;2023-05-10T01:58:04;13.68;;;4.97;;
21444;SDS011;10883;51.946;20.140;2023-05-10T02:00:33;10.93;;;4.15;;
21444;SDS011;10883;51.946;20.140;2023-05-10T02:03:01;7.05;;;4.32;;
21444;SDS011;10883;51.946;20.140;2023-05-10T02:05:30;9.35;;;4.68;;
21444;SDS011;10883;51.946;20.140;2023-05-10T02:07:58;7.97;;;3.45;;
21444;SDS011;10883;51.946;20.140;2023-05-10T02:10:27;8.55;;;4.43;;
21444;SDS011;10883;51.946;20.140;2023-05-10T02:12:54;9.70;;;5.00;;
21444;SDS011;10883;51.946;20.140;2023-05-10T02:15:23;9.52;;;4.38;;
21444;SDS011;10883;51.946;20.140;2023-05-10T02:17:51;7.07;;;4.22;;
21444;SDS011;10883;51.946;20.140;2023-05-10T02:20:19;6.57;;;4.35;;
21444;SDS011;10883;51.946;20.140;2023-05-10T02:22:47;8.50;;;4.60;;
21444;SDS011;10883;51.946;20.140;2023-05-10T02:25:15;8.65;;;4.50;;
21444;SDS011;10883;51.946;20.140;2023-05-10T02:27:44;12.10;;;4.72;;
21444;SDS011;10883;51.946;20.140;2023-05-10T02:30:11;12.63;;;4.78;;
21444;SDS011;10883;51.946;20.140;2023-05-10T02:32:37;8.07;;;4.38;;
21444;SDS011;10883;51.946;20.140;2023-05-10T02:35:04;8.68;;;4.50;;
21444;SDS011;10883;51.946;20.140;2023-05-10T02:37:31;6.72;;;4.10;;
21444;SDS011;10883;51.946;20.140;2023-05-10T02:39:59;8.63;;;4.50;;
21444;SDS011;10883;51.946;20.140;2023-05-10T02:42:28;9.23;;;4.65;;
21444;SDS011;10883;51.946;20.140;2023-05-10T02:44:59;6.53;;;4.30;;
21444;SDS011;10883;51.946;20.140;2023-05-10T02:47:27;8.90;;;4.50;;
21444;SDS011;10883;51.946;20.140;2023-05-10T02:49:56;9.80;;;4.80;;
21444;SDS011;10883;51.946;20.140;2023-05-10T02:52:26;6.63;;;4.10;;
21444;SDS011;10883;51.946;20.140;2023-05-10T02:54:55;8.10;;;4.47;;
21444;SDS011;10883;51.946;20.140;2023-05-10T02:57:26;8.52;;;4.40;;
21444;SDS011;10883;51.946;20.140;2023-05-10T02:59:54;9.48;;;4.28;;
21444;SDS011;10883;51.946;20.140;2023-05-10T03:02:20;9.75;;;4.15;;
21444;SDS011;10883;51.946;20.140;2023-05-10T03:04:46;9.23;;;4.43;;
21444;SDS011;10883;51.946;20.140;2023-05-10T03:07:12;9.43;;;5.03;;
21444;SDS011;10883;51.946;20.140;2023-05-10T03:09:38;9.25;;;4.95;;
21444;SDS011;10883;51.946;20.140;2023-05-10T03:12:27;11.02;;;4.85;;
21444;SDS011;10883;51.946;20.140;2023-05-10T03:17:52;7.22;;;4.20;;
21444;SDS011;10883;51.946;20.140;2023-05-10T03:20:31;9.65;;;4.60;;
21444;SDS011;10883;51.946;20.140;2023-05-10T03:23:07;8.32;;;4.60;;
21444;SDS011;10883;51.946;20.140;2023-05-10T03:25:42;6.63;;;4.60;;
21444;SDS011;10883;51.946;20.140;2023-05-10T03:28:09;8.32;;;4.30;;
21444;SDS011;10883;51.946;20.140;2023-05-10T03:30:35;10.55;;;4.45;;
21444;SDS011;10883;51.946;20.140;2023-05-10T03:33:05;10.40;;;4.97;;
21444;SDS011;10883;51.946;20.140;2023-05-10T03:35:34;11.73;;;5.25;;
21444;SDS011;10883;51.946;20.140;2023-05-10T03:38:00;13.18;;;7.20;;
21444;SDS011;10883;51.946;20.140;2023-05-10T03:40:26;15.65;;;8.25;;
21444;SDS011;10883;51.946;20.140;2023-05-10T03:42:54;17.88;;;9.20;;
21444;SDS011;10883;51.946;20.140;2023-05-10T03:45:20;19.02;;;9.50;;
21444;SDS011;10883;51.946;20.140;2023-05-10T03:47:46;16.77;;;9.60;;
21444;SDS011;10883;51.946;20.140;2023-05-10T03:50:12;18.20;;;8.95;;
21444;SDS011;10883;51.946;20.140;2023-05-10T03:52:37;18.08;;;8.38;;
21444;SDS011;10883;51.946;20.140;2023-05-10T03:55:06;16.75;;;8.35;;
21444;SDS011;10883;51.946;20.140;2023-05-10T03:57:32;21.00;;;8.63;;
21444;SDS011;10883;51.946;20.140;2023-05-10T03:59:59;19.65;;;8.82;;
21444;SDS011;10883;51.946;20.140;2023-05-10T04:02:25;17.10;;;8.15;;
21444;SDS011;10883;51.946;20.140;2023-05-10T04:04:50;14.15;;;7.57;;
21444;SDS011;10883;51.946;20.140;2023-05-10T04:07:16;14.25;;;7.45;;
21444;SDS011;10883;51.946;20.140;2023-05-10T04:09:43;12.32;;;5.57;;
21444;SDS011;10883;51.946;20.140;2023-05-10T04:12:08;9.85;;;5.20;;
21444;SDS011;10883;51.946;20.140;2023-05-10T04:14:34;11.52;;;5.75;;
21444;SDS011;10883;51.946;20.140;2023-05-10T04:17:00;12.18;;;6.20;;
21444;SDS011;10883;51.946;20.140;2023-05-10T04:19:29;11.07;;;4.90;;
21444;SDS011;10883;51.946;20.140;2023-05-10T04:21:55;10.88;;;5.03;;
21444;SDS011;10883;51.946;20.140;2023-05-10T04:24:21;8.75;;;4.50;;
21444;SDS011;10883;51.946;20.140;2023-05-10T04:26:47;7.75;;;4.53;;
21444;SDS011;10883;51.946;20.140;2023-05-10T04:29:12;13.00;;;4.25;;
21444;SDS011;10883;51.946;20.140;2023-05-10T04:31:38;7.13;;;3.75;;
21444;SDS011;10883;51.946;20.140;2023-05-10T04:34:07;11.18;;;4.47;;
21444;SDS011;10883;51.946;20.140;2023-05-10T04:36:33;8.00;;;4.32;;
21444;SDS011;10883;51.946;20.140;2023-05-10T04:39:00;8.75;;;4.25;;
21444;SDS011;10883;51.946;20.140;2023-05-10T04:41:28;7.13;;;3.78;;
21444;SDS011;10883;51.946;20.140;2023-05-10T04:43:54;6.75;;;3.83;;
21444;SDS011;10883;51.946;20.140;2023-05-10T04:46:20;6.22;;;4.03;;
21444;SDS011;10883;51.946;20.140;2023-05-10T04:48:46;8.18;;;3.88;;
21444;SDS011;10883;51.946;20.140;2023-05-10T04:51:11;7.80;;;3.67;;
21444;SDS011;10883;51.946;20.140;2023-05-10T04:53:37;5.55;;;3.78;;
21444;SDS011;10883;51.946;20.140;2023-05-10T04:56:03;7.72;;;3.90;;
21444;SDS011;10883;51.946;20.140;2023-05-10T04:58:29;8.32;;;3.80;;
21444;SDS011;10883;51.946;20.140;2023-05-10T05:00:55;8.13;;;3.90;;
21444;SDS011;10883;51.946;20.140;2023-05-10T05:03:21;9.23;;;4.05;;
21444;SDS011;10883;51.946;20.140;2023-05-10T05:05:47;7.25;;;4.03;;
21444;SDS011;10883;51.946;20.140;2023-05-10T05:08:13;8.98;;;3.40;;
21444;SDS011;10883;51.946;20.140;2023-05-10T05:10:39;8.05;;;3.28;;
21444;SDS011;10883;51.946;20.140;2023-05-10T05:13:04;8.00;;;3.58;;
21444;SDS011;10883;51.946;20.140;2023-05-10T05:15:30;9.50;;;3.83;;
21444;SDS011;10883;51.946;20.140;2023-05-10T05:17:56;6.15;;;3.72;;
21444;SDS011;10883;51.946;20.140;2023-05-10T05:20:22;9.15;;;3.47;;
21444;SDS011;10883;51.946;20.140;2023-05-10T05:22:48;8.38;;;3.90;;
21444;SDS011;10883;51.946;20.140;2023-05-10T05:25:14;5.78;;;3.20;;
21444;SDS011;10883;51.946;20.140;2023-05-10T05:27:40;5.75;;;3.78;;
21444;SDS011;10883;51.946;20.140;2023-05-10T05:30:07;8.55;;;4.35;;
21444;SDS011;10883;51.946;20.140;2023-05-10T05:32:33;6.78;;;3.70;;
21444;SDS011;10883;51.946;20.140;2023-05-10T05:34:59;3.97;;;2.92;;
21444;SDS011;10883;51.946;20.140;2023-05-10T05:37:24;8.77;;;3.72;;
21444;SDS011;10883;51.946;20.140;2023-05-10T05:39:50;5.15;;;3.42;;
21444;SDS011;10883;51.946;20.140;2023-05-10T05:42:16;6.05;;;3.20;;
21444;SDS011;10883;51.946;20.140;2023-05-10T05:44:43;4.65;;;2.83;;
21444;SDS011;10883;51.946;20.140;2023-05-10T05:47:09;7.38;;;3.50;;
21444;SDS011;10883;51.946;20.140;2023-05-10T05:49:35;10.75;;;3.17;;
21444;SDS011;10883;51.946;20.140;2023-05-10T05:52:01;4.45;;;2.78;;
21444;SDS011;10883;51.946;20.140;2023-05-10T05:54:28;7.00;;;3.25;;
21444;SDS011;10883;51.946;20.140;2023-05-10T05:56:55;8.60;;;3.53;;
21444;SDS011;10883;51.946;20.140;2023-05-10T05:59:22;4.80;;;2.72;;
21444;SDS011;10883;51.946;20.140;2023-05-10T06:01:48;4.97;;;2.60;;
21444;SDS011;10883;51.946;20.140;2023-05-10T06:04:14;6.75;;;3.05;;
21444;SDS011;10883;51.946;20.140;2023-05-10T06:06:40;7.43;;;3.10;;
21444;SDS011;10883;51.946;20.140;2023-05-10T06:09:06;6.47;;;3.08;;
21444;SDS011;10883;51.946;20.140;2023-05-10T06:11:31;5.25;;;2.47;;
21444;SDS011;10883;51.946;20.140;2023-05-10T06:13:57;7.28;;;2.90;;
21444;SDS011;10883;51.946;20.140;2023-05-10T06:16:24;3.80;;;2.20;;
21444;SDS011;10883;51.946;20.140;2023-05-10T06:18:50;4.40;;;2.60;;
21444;SDS011;10883;51.946;20.140;2023-05-10T06:21:16;6.00;;;2.45;;
21444;SDS011;10883;51.946;20.140;2023-05-10T06:23:42;7.88;;;2.72;;
21444;SDS011;10883;51.946;20.140;2023-05-10T06:26:08;4.20;;;2.85;;
21444;SDS011;10883;51.946;20.140;2023-05-10T06:28:34;5.47;;;2.65;;
21444;SDS011;10883;51.946;20.140;2023-05-10T06:31:03;3.55;;;2.80;;
21444;SDS011;10883;51.946;20.140;2023-05-10T06:33:29;3.35;;;2.50;;
21444;SDS011;10883;51.946;20.140;2023-05-10T06:35:55;3.78;;;2.20;;
21444;SDS011;10883;51.946;20.140;2023-05-10T06:38:21;4.20;;;2.60;;
21444;SDS011;10883;51.946;20.140;2023-05-10T06:40:47;4.15;;;2.78;;
21444;SDS011;10883;51.946;20.140;2023-05-10T06:43:13;5.55;;;2.60;;
21444;SDS011;10883;51.946;20.140;2023-05-10T06:45:38;7.45;;;2.70;;
21444;SDS011;10883;51.946;20.140;2023-05-10T06:48:04;3.00;;;2.40;;
21444;SDS011;10883;51.946;20.140;2023-05-10T06:50:30;7.00;;;2.50;;
21444;SDS011;10883;51.946;20.140;2023-05-10T06:52:56;4.63;;;2.10;;
21444;SDS011;10883;51.946;20.140;2023-05-10T06:55:22;5.30;;;2.42;;
21444;SDS011;10883;51.946;20.140;2023-05-10T06:57:48;5.40;;;2.50;;
21444;SDS011;10883;51.946;20.140;2023-05-10T07:00:15;3.95;;;2.78;;
21444;SDS011;10883;51.946;20.140;2023-05-10T07:02:41;19.90;;;2.80;;
21444;SDS011;10883;51.946;20.140;2023-05-10T07:05:07;7.25;;;2.45;;
21444;SDS011;10883;51.946;20.140;2023-05-10T07:07:33;4.88;;;2.40;;
21444;SDS011;10883;51.946;20.140;2023-05-10T07:09:59;7.95;;;3.10;;
21444;SDS011;10883;51.946;20.140;2023-05-10T07:12:25;7.15;;;2.35;;
21444;SDS011;10883;51.946;20.140;2023-05-10T07:14:51;5.88;;;2.58;;
21444;SDS011;10883;51.946;20.140;2023-05-10T07:17:17;12.05;;;2.65;;
21444;SDS011;10883;51.946;20.140;2023-05-10T07:19:43;4.45;;;2.38;;
21444;SDS011;10883;51.946;20.140;2023-05-10T07:22:09;3.60;;;2.38;;
21444;SDS011;10883;51.946;20.140;2023-05-10T07:24:34;5.07;;;2.58;;
21444;SDS011;10883;51.946;20.140;2023-05-10T07:27:00;4.78;;;2.50;;
21444;SDS011;10883;51.946;20.140;2023-05-10T07:29:26;4.20;;;2.38;;
21444;SDS011;10883;51.946;20.140;2023-05-10T07:31:52;4.88;;;1.90;;
21444;SDS011;10883;51.946;20.140;2023-05-10T07:34:18;6.97;;;2.30;;
21444;SDS011;10883;51.946;20.140;2023-05-10T07:36:44;2.80;;;2.05;;
21444;SDS011;10883;51.946;20.140;2023-05-10T07:39:09;3.15;;;1.70;;
21444;SDS011;10883;51.946;20.140;2023-05-10T07:41:35;3.85;;;1.83;;
21444;SDS011;10883;51.946;20.140;2023-05-10T07:44:02;5.22;;;2.15;;
21444;SDS011;10883;51.946;20.140;2023-05-10T07:46:29;7.20;;;1.90;;
21444;SDS011;10883;51.946;20.140;2023-05-10T07:48:54;7.85;;;2.50;;
21444;SDS011;10883;51.946;20.140;2023-05-10T07:51:20;5.20;;;2.45;;
21444;SDS011;10883;51.946;20.140;2023-05-10T07:53:46;6.53;;;2.08;;
21444;SDS011;10883;51.946;20.140;2023-05-10T07:58:47;4.40;;;1.92;;
21444;SDS011;10883;51.946;20.140;2023-05-10T08:01:12;4.30;;;1.90;;
21444;SDS011;10883;51.946;20.140;2023-05-10T08:03:38;2.53;;;1.58;;
21444;SDS011;10883;51.946;20.140;2023-05-10T08:06:04;4.65;;;2.33;;
21444;SDS011;10883;51.946;20.140;2023-05-10T08:08:31;5.32;;;2.20;;
21444;SDS011;10883;51.946;20.140;2023-05-10T08:10:56;3.42;;;1.92;;
21444;SDS011;10883;51.946;20.140;2023-05-10T08:13:22;5.53;;;2.00;;
21444;SDS011;10883;51.946;20.140;2023-05-10T08:15:48;1.75;;;1.40;;
21444;SDS011;10883;51.946;20.140;2023-05-10T08:18:13;8.18;;;1.95;;
21444;SDS011;10883;51.946;20.140;2023-05-10T08:20:39;5.93;;;2.08;;
21444;SDS011;10883;51.946;20.140;2023-05-10T08:23:05;2.30;;;1.60;;
21444;SDS011;10883;51.946;20.140;2023-05-10T08:25:31;7.28;;;2.15;;
21444;SDS011;10883;51.946;20.140;2023-05-10T08:27:57;3.00;;;1.90;;
21444;SDS011;10883;51.946;20.140;2023-05-10T08:30:22;3.05;;;1.60;;
21444;SDS011;10883;51.946;20.140;2023-05-10T08:32:48;2.92;;;1.70;;
21444;SDS011;10883;51.946;20.140;2023-05-10T08:35:15;6.75;;;2.20;;
21444;SDS011;10883;51.946;20.140;2023-05-10T08:37:41;5.20;;;1.65;;
21444;SDS011;10883;51.946;20.140;2023-05-10T08:40:07;6.70;;;2.17;;
21444;SDS011;10883;51.946;20.140;2023-05-10T08:42:36;3.30;;;2.10;;
21444;SDS011;10883;51.946;20.140;2023-05-10T08:45:06;4.82;;;1.90;;
21444;SDS011;10883;51.946;20.140;2023-05-10T08:47:34;2.50;;;1.90;;
21444;SDS011;10883;51.946;20.140;2023-05-10T08:50:03;2.58;;;1.55;;
21444;SDS011;10883;51.946;20.140;2023-05-10T08:52:30;4.75;;;1.73;;
21444;SDS011;10883;51.946;20.140;2023-05-10T08:54:57;3.47;;;1.73;;
21444;SDS011;10883;51.946;20.140;2023-05-10T08:57:23;2.67;;;1.75;;
21444;SDS011;10883;51.946;20.140;2023-05-10T08:59:49;5.93;;;2.22;;
21444;SDS011;10883;51.946;20.140;2023-05-10T09:02:15;4.75;;;2.13;;
21444;SDS011;10883;51.946;20.140;2023-05-10T09:04:43;9.52;;;2.92;;
21444;SDS011;10883;51.946;20.140;2023-05-10T09:07:09;3.05;;;2.05;;
21444;SDS011;10883;51.946;20.140;2023-05-10T09:09:36;3.63;;;1.90;;
21444;SDS011;10883;51.946;20.140;2023-05-10T09:12:02;2.63;;;1.67;;
21444;SDS011;10883;51.946;20.140;2023-05-10T09:14:28;3.47;;;1.70;;
21444;SDS011;10883;51.946;20.140;2023-05-10T09:16:55;3.05;;;1.70;;
21444;SDS011;10883;51.946;20.140;2023-05-10T09:19:21;4.93;;;1.85;;
21444;SDS011;10883;51.946;20.140;2023-05-10T09:21:47;3.20;;;1.73;;
21444;SDS011;10883;51.946;20.140;2023-05-10T09:24:14;3.67;;;1.38;;
21444;SDS011;10883;51.946;20.140;2023-05-10T09:26:46;3.55;;;2.22;;
21444;SDS011;10883;51.946;20.140;2023-05-10T09:29:13;2.58;;;1.33;;
21444;SDS011;10883;51.946;20.140;2023-05-10T09:34:16;4.22;;;1.55;;
21444;SDS011;10883;51.946;20.140;2023-05-10T09:36:55;6.05;;;1.38;;
21444;SDS011;10883;51.946;20.140;2023-05-10T09:39:36;4.55;;;2.13;;
21444;SDS011;10883;51.946;20.140;2023-05-10T09:42:04;1.85;;;1.27;;
21444;SDS011;10883;51.946;20.140;2023-05-10T09:44:32;2.25;;;1.50;;
21444;SDS011;10883;51.946;20.140;2023-05-10T09:46:59;4.72;;;1.60;;
21444;SDS011;10883;51.946;20.140;2023-05-10T09:49:26;7.88;;;1.92;;
21444;SDS011;10883;51.946;20.140;2023-05-10T09:52:02;2.60;;;1.63;;
21444;SDS011;10883;51.946;20.140;2023-05-10T09:54:30;2.15;;;1.50;;
21444;SDS011;10883;51.946;20.140;2023-05-10T09:56:56;3.08;;;1.88;;
21444;SDS011;10883;51.946;20.140;2023-05-10T09:59:22;2.13;;;1.63;;
21444;SDS011;10883;51.946;20.140;2023-05-10T10:01:51;1.80;;;1.50;;
21444;SDS011;10883;51.946;20.140;2023-05-10T10:04:21;2.20;;;1.60;;
21444;SDS011;10883;51.946;20.140;2023-05-10T10:06:47;6.95;;;2.30;;
21444;SDS011;10883;51.946;20.140;2023-05-10T10:09:27;1.95;;;1.65;;
21444;SDS011;10883;51.946;20.140;2023-05-10T10:11:53;3.13;;;1.67;;
21444;SDS011;10883;51.946;20.140;2023-05-10T10:14:19;5.53;;;2.20;;
21444;SDS011;10883;51.946;20.140;2023-05-10T10:16:46;3.25;;;1.92;;
21444;SDS011;10883;51.946;20.140;2023-05-10T10:19:13;5.10;;;2.35;;
21444;SDS011;10883;51.946;20.140;2023-05-10T10:21:39;8.52;;;2.40;;
21444;SDS011;10883;51.946;20.140;2023-05-10T10:24:06;3.13;;;2.35;;
21444;SDS011;10883;51.946;20.140;2023-05-10T10:26:33;15.95;;;3.00;;
21444;SDS011;10883;51.946;20.140;2023-05-10T10:29:13;5.07;;;2.10;;
21444;SDS011;10883;51.946;20.140;2023-05-10T10:32:49;5.55;;;2.38;;
21444;SDS011;10883;51.946;20.140;2023-05-10T10:35:14;3.75;;;2.28;;
21444;SDS011;10883;51.946;20.140;2023-05-10T10:37:42;3.55;;;1.73;;
21444;SDS011;10883;51.946;20.140;2023-05-10T10:42:57;3.15;;;2.33;;
21444;SDS011;10883;51.946;20.140;2023-05-10T10:45:24;5.30;;;1.77;;
21444;SDS011;10883;51.946;20.140;2023-05-10T10:50:46;2.85;;;1.40;;
21444;SDS011;10883;51.946;20.140;2023-05-10T10:53:12;1.50;;;1.40;;
21444;SDS011;10883;51.946;20.140;2023-05-10T10:55:47;3.60;;;1.88;;
21444;SDS011;10883;51.946;20.140;2023-05-10T10:58:32;3.30;;;1.35;;
21444;SDS011;10883;51.946;20.140;2023-05-10T11:01:09;1.63;;;1.50;;
21444;SDS011;10883;51.946;20.140;2023-05-10T11:03:40;3.38;;;1.73;;
21444;SDS011;10883;51.946;20.140;2023-05-10T11:06:28;2.78;;;1.75;;
21444;SDS011;10883;51.946;20.140;2023-05-10T11:08:54;5.10;;;1.67;;
21444;SDS011;10883;51.946;20.140;2023-05-10T11:11:20;3.42;;;1.83;;
21444;SDS011;10883;51.946;20.140;2023-05-10T11:13:47;1.90;;;1.65;;
21444;SDS011;10883;51.946;20.140;2023-05-10T11:16:21;5.43;;;1.85;;
21444;SDS011;10883;51.946;20.140;2023-05-10T11:21:18;4.60;;;2.25;;
21444;SDS011;10883;51.946;20.140;2023-05-10T11:23:48;4.78;;;1.90;;
21444;SDS011;10883;51.946;20.140;2023-05-10T11:26:15;4.88;;;2.40;;
21444;SDS011;10883;51.946;20.140;2023-05-10T11:28:45;5.00;;;2.22;;
21444;SDS011;10883;51.946;20.140;2023-05-10T11:31:14;2.45;;;1.70;;
21444;SDS011;10883;51.946;20.140;2023-05-10T11:33:48;5.90;;;2.05;;
21444;SDS011;10883;51.946;20.140;2023-05-10T11:36:16;4.05;;;1.67;;
21444;SDS011;10883;51.946;20.140;2023-05-10T11:38:44;3.95;;;1.60;;
21444;SDS011;10883;51.946;20.140;2023-05-10T11:41:10;5.18;;;1.48;;
21444;SDS011;10883;51.946;20.140;2023-05-10T11:43:38;3.75;;;1.67;;
21444;SDS011;10883;51.946;20.140;2023-05-10T11:46:05;3.78;;;2.03;;
21444;SDS011;10883;51.946;20.140;2023-05-10T11:48:32;5.00;;;2.10;;
21444;SDS011;10883;51.946;20.140;2023-05-10T11:50:58;2.60;;;1.70;;
21444;SDS011;10883;51.946;20.140;2023-05-10T11:53:27;5.68;;;2.28;;
21444;SDS011;10883;51.946;20.140;2023-05-10T11:55:54;4.18;;;2.20;;
21444;SDS011;10883;51.946;20.140;2023-05-10T11:58:20;4.60;;;1.80;;
21444;SDS011;10883;51.946;20.140;2023-05-10T12:00:47;3.50;;;2.10;;
21444;SDS011;10883;51.946;20.140;2023-05-10T12:03:13;2.72;;;1.73;;
21444;SDS011;10883;51.946;20.140;2023-05-10T12:05:39;3.80;;;1.88;;
21444;SDS011;10883;51.946;20.140;2023-05-10T12:08:14;8.88;;;2.20;;
21444;SDS011;10883;51.946;20.140;2023-05-10T12:10:41;2.38;;;1.60;;
21444;SDS011;10883;51.946;20.140;2023-05-10T12:13:13;3.95;;;1.80;;
21444;SDS011;10883;51.946;20.140;2023-05-10T12:15:40;5.80;;;1.75;;
21444;SDS011;10883;51.946;20.140;2023-05-10T12:18:10;3.17;;;1.58;;
21444;SDS011;10883;51.946;20.140;2023-05-10T12:20:36;6.85;;;2.10;;
21444;SDS011;10883;51.946;20.140;2023-05-10T12:23:02;3.50;;;1.98;;
21444;SDS011;10883;51.946;20.140;2023-05-10T12:25:35;3.85;;;1.92;;
21444;SDS011;10883;51.946;20.140;2023-05-10T12:28:11;5.85;;;1.92;;
21444;SDS011;10883;51.946;20.140;2023-05-10T12:30:37;1.83;;;1.60;;
21444;SDS011;10883;51.946;20.140;2023-05-10T12:33:08;2.65;;;1.60;;
21444;SDS011;10883;51.946;20.140;2023-05-10T12:35:50;5.05;;;2.10;;
21444;SDS011;10883;51.946;20.140;2023-05-10T12:38:32;3.53;;;2.22;;
21444;SDS011;10883;51.946;20.140;2023-05-10T12:40:59;4.90;;;2.03;;
21444;SDS011;10883;51.946;20.140;2023-05-10T12:43:32;7.45;;;1.80;;
21444;SDS011;10883;51.946;20.140;2023-05-10T12:46:05;3.05;;;1.83;;
21444;SDS011;10883;51.946;20.140;2023-05-10T12:48:32;8.60;;;2.10;;
21444;SDS011;10883;51.946;20.140;2023-05-10T12:50:59;4.10;;;1.58;;
21444;SDS011;10883;51.946;20.140;2023-05-10T12:53:26;3.60;;;1.70;;
21444;SDS011;10883;51.946;20.140;2023-05-10T12:55:51;4.32;;;1.73;;
21444;SDS011;10883;51.946;20.140;2023-05-10T12:58:18;3.08;;;1.88;;
21444;SDS011;10883;51.946;20.140;2023-05-10T13:00:44;4.22;;;1.73;;
21444;SDS011;10883;51.946;20.140;2023-05-10T13:03:10;4.93;;;1.63;;
21444;SDS011;10883;51.946;20.140;2023-05-10T13:05:36;3.85;;;1.75;;
21444;SDS011;10883;51.946;20.140;2023-05-10T13:08:02;5.65;;;2.28;;
21444;SDS011;10883;51.946;20.140;2023-05-10T13:10:29;3.72;;;1.92;;
21444;SDS011;10883;51.946;20.140;2023-05-10T13:12:56;4.85;;;2.53;;
21444;SDS011;10883;51.946;20.140;2023-05-10T13:15:22;2.83;;;2.15;;
21444;SDS011;10883;51.946;20.140;2023-05-10T13:17:48;2.90;;;1.92;;
21444;SDS011;10883;51.946;20.140;2023-05-10T13:20:14;4.55;;;1.73;;
21444;SDS011;10883;51.946;20.140;2023-05-10T13:22:40;3.17;;;1.80;;
21444;SDS011;10883;51.946;20.140;2023-05-10T13:25:06;2.92;;;1.75;;
21444;SDS011;10883;51.946;20.140;2023-05-10T13:27:33;5.43;;;2.25;;
21444;SDS011;10883;51.946;20.140;2023-05-10T13:29:59;4.70;;;1.80;;
21444;SDS011;10883;51.946;20.140;2023-05-10T13:32:25;5.05;;;1.80;;
21444;SDS011;10883;51.946;20.140;2023-05-10T13:34:51;8.25;;;2.00;;
21444;SDS011;10883;51.946;20.140;2023-05-10T13:37:17;6.10;;;2.08;;
21444;SDS011;10883;51.946;20.140;2023-05-10T13:39:43;6.15;;;1.90;;
21444;SDS011;10883;51.946;20.140;2023-05-10T13:42:09;4.93;;;1.88;;
21444;SDS011;10883;51.946;20.140;2023-05-10T13:44:34;3.00;;;1.55;;
21444;SDS011;10883;51.946;20.140;2023-05-10T13:47:01;5.93;;;1.58;;
21444;SDS011;10883;51.946;20.140;2023-05-10T13:49:26;4.07;;;2.63;;
21444;SDS011;10883;51.946;20.140;2023-05-10T13:51:52;7.97;;;2.03;;
21444;SDS011;10883;51.946;20.140;2023-05-10T13:54:18;4.07;;;1.95;;
21444;SDS011;10883;51.946;20.140;2023-05-10T13:56:45;3.22;;;1.92;;
21444;SDS011;10883;51.946;20.140;2023-05-10T13:59:12;2.40;;;1.60;;
21444;SDS011;10883;51.946;20.140;2023-05-10T14:01:39;6.38;;;1.85;;
21444;SDS011;10883;51.946;20.140;2023-05-10T14:04:08;5.55;;;1.95;;
21444;SDS011;10883;51.946;20.140;2023-05-10T14:06:38;8.38;;;2.13;;
21444;SDS011;10883;51.946;20.140;2023-05-10T14:09:04;4.22;;;1.98;;
21444;SDS011;10883;51.946;20.140;2023-05-10T14:11:30;6.80;;;2.20;;
21444;SDS011;10883;51.946;20.140;2023-05-10T14:13:55;3.47;;;1.75;;
21444;SDS011;10883;51.946;20.140;2023-05-10T14:16:21;5.78;;;2.17;;
21444;SDS011;10883;51.946;20.140;2023-05-10T14:18:47;2.17;;;1.83;;
21444;SDS011;10883;51.946;20.140;2023-05-10T14:21:13;4.53;;;1.60;;
21444;SDS011;10883;51.946;20.140;2023-05-10T14:23:38;6.03;;;2.08;;
21444;SDS011;10883;51.946;20.140;2023-05-10T14:26:04;5.57;;;1.80;;
21444;SDS011;10883;51.946;20.140;2023-05-10T14:28:31;7.57;;;1.90;;
21444;SDS011;10883;51.946;20.140;2023-05-10T14:30:57;7.90;;;2.33;;
21444;SDS011;10883;51.946;20.140;2023-05-10T14:33:24;7.10;;;3.63;;
21444;SDS011;10883;51.946;20.140;2023-05-10T14:35:50;9.45;;;2.08;;
21444;SDS011;10883;51.946;20.140;2023-05-10T14:38:16;6.35;;;2.63;;
21444;SDS011;10883;51.946;20.140;2023-05-10T14:40:41;6.45;;;2.42;;
21444;SDS011;10883;51.946;20.140;2023-05-10T14:43:08;9.32;;;2.25;;
21444;SDS011;10883;51.946;20.140;2023-05-10T14:45:34;3.38;;;1.80;;
21444;SDS011;10883;51.946;20.140;2023-05-10T14:48:00;8.57;;;2.15;;
21444;SDS011;10883;51.946;20.140;2023-05-10T14:50:26;7.03;;;2.65;;
21444;SDS011;10883;51.946;20.140;2023-05-10T14:52:51;6.28;;;2.30;;
21444;SDS011;10883;51.946;20.140;2023-05-10T14:55:17;2.83;;;2.10;;
21444;SDS011;10883;51.946;20.140;2023-05-10T14:57:43;4.15;;;2.05;;
21444;SDS011;10883;51.946;20.140;2023-05-10T15:00:11;3.05;;;1.92;;
21444;SDS011;10883;51.946;20.140;2023-05-10T15:02:40;3.97;;;1.88;;
21444;SDS011;10883;51.946;20.140;2023-05-10T15:05:06;6.60;;;2.08;;